createdAt,value
2023-05-01T00:00:11.433Z,1009.36
2023-05-01T00:01:11.431Z,1009.37
2023-05-01T00:02:11.491Z,1009.34
2023-05-01T00:03:11.480Z,1009.32
2023-05-01T00:04:11.650Z,1009.31
2023-05-01T00:05:11.611Z,1009.29
2023-05-01T00:06:11.432Z,1009.32
2023-05-01T00:07:11.323Z,1009.27
2023-05-01T00:08:11.405Z,1009.25
2023-05-01T00:09:11.318Z,1009.26
2023-05-01T00:10:11.309Z,1009.27
2023-05-01T00:11:11.289Z,1009.27
2023-05-01T00:12:11.388Z,1009.26
2023-05-01T00:13:11.268Z,1009.30
2023-05-01T00:14:11.258Z,1009.23
2023-05-01T00:15:11.236Z,1009.22
2023-05-01T00:16:11.246Z,1009.28
2023-05-01T00:17:11.227Z,1009.23
2023-05-01T00:18:11.224Z,1009.26
2023-05-01T00:19:11.204Z,1009.20
2023-05-01T00:20:11.177Z,1009.21
2023-05-01T00:21:11.185Z,1009.19
2023-05-01T00:22:11.162Z,1009.21
2023-05-01T00:23:11.140Z,1009.18
2023-05-01T00:24:11.133Z,1009.19
2023-05-01T00:25:11.135Z,1009.14
2023-05-01T00:26:11.106Z,1009.15
2023-05-01T00:27:11.124Z,1009.15
2023-05-01T00:28:11.129Z,1009.10
2023-05-01T00:29:11.087Z,1009.11
2023-05-01T00:30:11.079Z,1009.17
2023-05-01T00:31:11.057Z,1009.16
2023-05-01T00:32:11.336Z,1009.13
2023-05-01T00:33:11.064Z,1009.10
2023-05-01T00:34:11.020Z,1009.11
2023-05-01T00:35:11.053Z,1009.13
2023-05-01T00:36:11.023Z,1009.12
2023-05-01T00:37:10.999Z,1009.09
2023-05-01T00:38:10.975Z,1009.09
2023-05-01T00:39:10.965Z,1009.07
2023-05-01T00:40:10.973Z,1009.07
2023-05-01T00:41:10.941Z,1009.08
2023-05-01T00:42:10.958Z,1009.05
2023-05-01T00:43:10.941Z,1009.07
2023-05-01T00:44:10.959Z,1009.05
2023-05-01T00:45:10.895Z,1009.05
2023-05-01T00:46:10.936Z,1009.06
2023-05-01T00:47:10.894Z,1009.03
2023-05-01T00:48:11.129Z,1009.07
2023-05-01T00:49:10.858Z,1009.02
2023-05-01T00:50:10.853Z,1009.04
2023-05-01T00:51:10.844Z,1009.00
2023-05-01T00:52:10.833Z,1009.01
2023-05-01T00:53:10.838Z,1008.99
2023-05-01T00:54:11.109Z,1008.98
2023-05-01T00:55:10.828Z,1009.00
2023-05-01T00:56:10.791Z,1008.94
2023-05-01T00:57:10.778Z,1008.93
2023-05-01T00:58:10.769Z,1008.92
2023-05-01T00:59:10.762Z,1008.92
2023-05-01T01:00:10.792Z,1008.90
2023-05-01T01:01:10.767Z,1008.89
2023-05-01T01:02:10.715Z,1008.91
2023-05-01T01:03:10.742Z,1008.88
2023-05-01T01:04:10.795Z,1008.90
2023-05-01T01:05:10.680Z,1008.83
2023-05-01T01:06:10.720Z,1008.86
2023-05-01T01:07:10.669Z,1008.84
2023-05-01T01:08:10.645Z,1008.84
2023-05-01T01:09:10.672Z,1008.80
2023-05-01T01:10:10.626Z,1008.82
2023-05-01T01:11:10.622Z,1008.78
2023-05-01T01:12:10.675Z,1008.80
2023-05-01T01:13:10.597Z,1008.78
2023-05-01T01:14:10.578Z,1008.77
2023-05-01T01:15:10.563Z,1008.73
2023-05-01T01:16:10.598Z,1008.76
2023-05-01T01:17:10.748Z,1008.76
2023-05-01T01:18:10.554Z,1008.74
2023-05-01T01:19:10.536Z,1008.71
2023-05-01T01:20:10.514Z,1008.71
2023-05-01T01:21:10.521Z,1008.73
2023-05-01T01:22:10.488Z,1008.69
2023-05-01T01:23:10.478Z,1008.64
2023-05-01T01:24:10.461Z,1008.65
2023-05-01T01:25:10.455Z,1008.64
2023-05-01T01:26:10.475Z,1008.62
2023-05-01T01:27:10.430Z,1008.60
2023-05-01T01:28:10.428Z,1008.64
2023-05-01T01:29:10.425Z,1008.58
2023-05-01T01:30:10.412Z,1008.58
2023-05-01T01:31:10.478Z,1008.60
2023-05-01T01:32:10.453Z,1008.55
2023-05-01T01:33:10.507Z,1008.62
2023-05-01T01:34:10.363Z,1008.56
2023-05-01T01:35:10.356Z,1008.54
2023-05-01T01:36:10.334Z,1008.55
2023-05-01T01:37:10.321Z,1008.51
2023-05-01T01:38:10.316Z,1008.55
2023-05-01T01:39:10.299Z,1008.53
2023-05-01T01:40:10.288Z,1008.53
2023-05-01T01:41:10.292Z,1008.50
2023-05-01T01:42:10.304Z,1008.50
2023-05-01T01:43:10.257Z,1008.54
2023-05-01T01:44:10.263Z,1008.48
2023-05-01T01:45:10.248Z,1008.48
2023-05-01T01:46:10.292Z,1008.47
2023-05-01T01:47:10.239Z,1008.46
2023-05-01T01:48:10.288Z,1008.44
2023-05-01T01:49:10.193Z,1008.42
2023-05-01T01:50:10.182Z,1008.43
2023-05-01T01:51:10.168Z,1008.43
2023-05-01T01:52:10.159Z,1008.42
2023-05-01T01:53:10.148Z,1008.39
2023-05-01T01:54:10.156Z,1008.36
2023-05-01T01:55:10.135Z,1008.35
2023-05-01T01:56:10.114Z,1008.36
2023-05-01T01:57:10.118Z,1008.35
2023-05-01T01:58:10.115Z,1008.35
2023-05-01T01:59:10.096Z,1008.35
2023-05-01T02:00:10.101Z,1008.34
2023-05-01T02:01:10.095Z,1008.33
2023-05-01T02:02:10.096Z,1008.30
2023-05-01T02:03:10.169Z,1008.31
2023-05-01T02:04:10.234Z,1008.34
2023-05-01T02:05:10.004Z,1008.29
2023-05-01T02:06:10.036Z,1008.30
2023-05-01T02:07:10.005Z,1008.24
2023-05-01T02:08:09.979Z,1008.27
2023-05-01T02:09:09.978Z,1008.23
2023-05-01T02:10:09.965Z,1008.26
2023-05-01T02:11:09.942Z,1008.23
2023-05-01T02:12:09.942Z,1008.22
2023-05-01T02:13:09.936Z,1008.20
2023-05-01T02:14:09.923Z,1008.22
2023-05-01T02:15:09.916Z,1008.19
2023-05-01T02:16:09.953Z,1008.18
2023-05-01T02:17:09.905Z,1008.17
2023-05-01T02:18:09.950Z,1008.13
2023-05-01T02:19:09.867Z,1008.16
2023-05-01T02:20:09.886Z,1008.18
2023-05-01T02:21:09.856Z,1008.13
2023-05-01T02:22:09.829Z,1008.14
2023-05-01T02:23:09.830Z,1008.10
2023-05-01T02:24:09.799Z,1008.14
2023-05-01T02:25:09.800Z,1008.13
2023-05-01T02:26:09.786Z,1008.05
2023-05-01T02:27:09.770Z,1008.11
2023-05-01T02:28:09.772Z,1008.08
2023-05-01T02:29:09.775Z,1008.08
2023-05-01T02:30:09.756Z,1008.07
2023-05-01T02:31:09.762Z,1008.04
2023-05-01T02:32:09.740Z,1008.06
2023-05-01T02:33:09.919Z,1008.03
2023-05-01T02:34:09.694Z,1008.02
2023-05-01T02:35:09.689Z,1008.01
2023-05-01T02:36:09.691Z,1008.02
2023-05-01T02:37:09.685Z,1008.00
2023-05-01T02:38:09.652Z,1008.00
2023-05-01T02:39:09.652Z,1007.99
2023-05-01T02:40:09.625Z,1007.96
2023-05-01T02:41:09.638Z,1008.01
2023-05-01T02:42:09.608Z,1007.97
2023-05-01T02:43:09.603Z,1007.97
2023-05-01T02:44:09.581Z,1007.96
2023-05-01T02:45:09.587Z,1007.95
2023-05-01T02:46:09.647Z,1007.88
2023-05-01T02:47:09.597Z,1007.88
2023-05-01T02:48:09.666Z,1007.85
2023-05-01T02:49:09.552Z,1007.84
2023-05-01T02:50:09.525Z,1007.84
2023-05-01T02:51:09.504Z,1007.85
2023-05-01T02:52:09.532Z,1007.84
2023-05-01T02:53:09.487Z,1007.80
2023-05-01T02:54:09.491Z,1007.83
2023-05-01T02:55:09.496Z,1007.81
2023-05-01T02:56:09.479Z,1007.80
2023-05-01T02:57:09.450Z,1007.79
2023-05-01T02:58:09.445Z,1007.79
2023-05-01T02:59:09.418Z,1007.74
2023-05-01T03:00:09.465Z,1007.79
2023-05-01T03:01:09.437Z,1007.80
2023-05-01T03:02:09.384Z,1007.76
2023-05-01T03:03:09.435Z,1007.79
2023-05-01T03:04:09.434Z,1007.74
2023-05-01T03:05:09.354Z,1007.74
2023-05-01T03:06:09.343Z,1007.70
2023-05-01T03:07:09.339Z,1007.72
2023-05-01T03:08:09.346Z,1007.72
2023-05-01T03:09:09.301Z,1007.71
2023-05-01T03:10:09.296Z,1007.65
2023-05-01T03:11:09.310Z,1007.64
2023-05-01T03:12:09.286Z,1007.62
2023-05-01T03:13:09.609Z,1007.61
2023-05-01T03:14:09.248Z,1007.59
2023-05-01T03:15:09.254Z,1007.60
2023-05-01T03:16:09.294Z,1007.54
2023-05-01T03:17:09.245Z,1007.54
2023-05-01T03:18:09.343Z,1007.51
2023-05-01T03:19:09.206Z,1007.57
2023-05-01T03:20:09.209Z,1007.51
2023-05-01T03:21:09.196Z,1007.51
2023-05-01T03:22:09.172Z,1007.51
2023-05-01T03:23:09.163Z,1007.51
2023-05-01T03:24:09.173Z,1007.52
2023-05-01T03:25:09.128Z,1007.45
2023-05-01T03:26:09.135Z,1007.51
2023-05-01T03:27:09.107Z,1007.44
2023-05-01T03:28:09.105Z,1007.43
2023-05-01T03:29:09.080Z,1007.44
2023-05-01T03:30:09.079Z,1007.43
2023-05-01T03:31:09.068Z,1007.39
2023-05-01T03:32:09.122Z,1007.38
2023-05-01T03:33:09.108Z,1007.37
2023-05-01T03:34:09.044Z,1007.38
2023-05-01T03:35:09.073Z,1007.36
2023-05-01T03:36:09.020Z,1007.38
2023-05-01T03:37:08.989Z,1007.36
2023-05-01T03:38:09.002Z,1007.36
2023-05-01T03:39:09.068Z,1007.35
2023-05-01T03:40:08.985Z,1007.37
2023-05-01T03:41:08.961Z,1007.34
2023-05-01T03:42:08.929Z,1007.28
2023-05-01T03:43:08.974Z,1007.31
2023-05-01T03:44:08.950Z,1007.26
2023-05-01T03:45:08.921Z,1007.26
2023-05-01T03:46:08.966Z,1007.23
2023-05-01T03:47:08.877Z,1007.27
2023-05-01T03:48:08.918Z,1007.23
2023-05-01T03:49:08.888Z,1007.28
2023-05-01T03:50:08.852Z,1007.26
2023-05-01T03:51:08.829Z,1007.28
2023-05-01T03:52:08.831Z,1007.24
2023-05-01T03:53:08.820Z,1007.25
2023-05-01T03:54:08.801Z,1007.23
2023-05-01T03:55:08.798Z,1007.27
2023-05-01T03:56:08.829Z,1007.22
2023-05-01T03:57:08.778Z,1007.25
2023-05-01T03:58:08.773Z,1007.24
2023-05-01T03:59:08.762Z,1007.23
2023-05-01T04:00:08.748Z,1007.22
2023-05-01T04:01:08.737Z,1007.23
2023-05-01T04:02:08.799Z,1007.17
2023-05-01T04:03:08.794Z,1007.19
2023-05-01T04:04:08.833Z,1007.22
2023-05-01T04:05:08.696Z,1007.20
2023-05-01T04:06:08.728Z,1007.20
2023-05-01T04:07:08.687Z,1007.20
2023-05-01T04:08:08.682Z,1007.19
2023-05-01T04:09:08.634Z,1007.14
2023-05-01T04:10:08.630Z,1007.18
2023-05-01T04:11:08.630Z,1007.12
2023-05-01T04:12:08.643Z,1007.17
2023-05-01T04:13:08.594Z,1007.12
2023-05-01T04:14:08.614Z,1007.22
2023-05-01T04:15:08.585Z,1007.18
2023-05-01T04:16:08.687Z,1007.16
2023-05-01T04:17:08.569Z,1007.14
2023-05-01T04:18:08.617Z,1007.17
2023-05-01T04:19:08.528Z,1007.15
2023-05-01T04:20:08.523Z,1007.14
2023-05-01T04:21:08.505Z,1007.15
2023-05-01T04:22:08.516Z,1007.16
2023-05-01T04:23:08.479Z,1007.16
2023-05-01T04:24:08.477Z,1007.14
2023-05-01T04:25:08.475Z,1007.17
2023-05-01T04:26:08.446Z,1007.12
2023-05-01T04:27:08.452Z,1007.14
2023-05-01T04:28:08.471Z,1007.08
2023-05-01T04:29:08.431Z,1007.03
2023-05-01T04:30:08.423Z,1007.04
2023-05-01T04:31:08.451Z,1007.05
2023-05-01T04:32:08.484Z,1007.07
2023-05-01T04:33:08.411Z,1007.06
2023-05-01T04:34:08.372Z,1007.06
2023-05-01T04:35:08.350Z,1007.09
2023-05-01T04:36:08.368Z,1007.08
2023-05-01T04:37:08.320Z,1007.07
2023-05-01T04:38:08.408Z,1007.08
2023-05-01T04:39:08.301Z,1007.08
2023-05-01T04:40:10.555Z,1007.04
2023-05-01T04:41:08.276Z,1007.04
2023-05-01T04:42:08.625Z,1007.00
2023-05-01T04:43:08.256Z,1007.01
2023-05-01T04:44:08.263Z,1007.04
2023-05-01T04:45:08.252Z,1007.08
2023-05-01T04:46:08.245Z,1007.10
2023-05-01T04:47:08.335Z,1007.06
2023-05-01T04:48:08.235Z,1007.05
2023-05-01T04:49:08.199Z,1007.08
2023-05-01T04:50:08.213Z,1007.14
2023-05-01T04:51:08.170Z,1007.07
2023-05-01T04:52:08.165Z,1007.09
2023-05-01T04:53:08.163Z,1007.06
2023-05-01T04:54:08.143Z,1007.12
2023-05-01T04:55:08.144Z,1007.09
2023-05-01T04:56:08.116Z,1007.09
2023-05-01T04:57:08.126Z,1007.08
2023-05-01T04:58:08.152Z,1007.10
2023-05-01T04:59:08.086Z,1007.15
2023-05-01T05:00:08.150Z,1007.10
2023-05-01T05:01:08.147Z,1007.09
2023-05-01T05:02:08.073Z,1007.06
2023-05-01T05:03:08.243Z,1007.09
2023-05-01T05:04:08.171Z,1007.11
2023-05-01T05:05:08.043Z,1007.11
2023-05-01T05:06:08.055Z,1007.11
2023-05-01T05:07:08.028Z,1007.08
2023-05-01T05:08:07.979Z,1007.10
2023-05-01T05:09:08.019Z,1007.07
2023-05-01T05:10:07.992Z,1007.05
2023-05-01T05:11:07.994Z,1007.06
2023-05-01T05:12:08.027Z,1007.04
2023-05-01T05:13:07.984Z,1007.04
2023-05-01T05:14:07.957Z,1007.03
2023-05-01T05:15:07.924Z,1007.02
2023-05-01T05:16:07.985Z,1007.00
2023-05-01T05:17:07.896Z,1006.95
2023-05-01T05:18:07.985Z,1006.98
2023-05-01T05:19:07.920Z,1007.00
2023-05-01T05:20:07.872Z,1007.01
2023-05-01T05:21:07.868Z,1007.04
2023-05-01T05:22:07.830Z,1007.03
2023-05-01T05:23:08.597Z,1007.06
2023-05-01T05:24:07.837Z,1007.02
2023-05-01T05:25:07.805Z,1007.03
2023-05-01T05:26:07.831Z,1007.06
2023-05-01T05:27:07.776Z,1007.06
2023-05-01T05:28:07.754Z,1007.05
2023-05-01T05:29:07.789Z,1007.07
2023-05-01T05:30:07.801Z,1007.05
2023-05-01T05:31:07.744Z,1007.03
2023-05-01T05:32:07.800Z,1007.03
2023-05-01T05:33:07.838Z,1006.94
2023-05-01T05:34:07.722Z,1007.03
2023-05-01T05:35:07.721Z,1007.01
2023-05-01T05:36:07.673Z,1007.02
2023-05-01T05:37:07.663Z,1007.01
2023-05-01T05:38:07.684Z,1007.02
2023-05-01T05:39:07.656Z,1007.05
2023-05-01T05:40:07.658Z,1006.99
2023-05-01T05:41:07.649Z,1007.00
2023-05-01T05:42:07.606Z,1007.00
2023-05-01T05:43:07.652Z,1007.02
2023-05-01T05:44:07.627Z,1007.00
2023-05-01T05:45:07.586Z,1007.00
2023-05-01T05:46:07.660Z,1006.98
2023-05-01T05:47:07.594Z,1007.01
2023-05-01T05:48:07.618Z,1006.95
2023-05-01T05:49:07.544Z,1006.98
2023-05-01T05:50:07.533Z,1006.97
2023-05-01T05:51:07.498Z,1007.02
2023-05-01T05:52:07.500Z,1006.99
2023-05-01T05:53:07.509Z,1007.02
2023-05-01T05:54:07.469Z,1006.99
2023-05-01T05:55:07.460Z,1006.99
2023-05-01T05:56:07.478Z,1006.98
2023-05-01T05:57:07.432Z,1006.99
2023-05-01T05:58:07.447Z,1007.01
2023-05-01T05:59:07.442Z,1007.01
2023-05-01T06:00:07.467Z,1007.02
2023-05-01T06:01:07.405Z,1007.01
2023-05-01T06:02:07.456Z,1007.01
2023-05-01T06:03:07.522Z,1006.98
2023-05-01T06:04:07.404Z,1007.00
2023-05-01T06:05:07.389Z,1007.00
2023-05-01T06:06:07.452Z,1007.00
2023-05-01T06:07:07.324Z,1007.02
2023-05-01T06:08:07.326Z,1007.01
2023-05-01T06:09:07.396Z,1007.00
2023-05-01T06:10:07.310Z,1007.01
2023-05-01T06:11:07.335Z,1007.04
2023-05-01T06:12:07.322Z,1007.04
2023-05-01T06:13:14.126Z,1007.04
2023-05-01T06:14:08.280Z,1007.05
2023-05-01T06:15:07.236Z,1007.00
2023-05-01T06:16:07.300Z,1007.01
2023-05-01T06:17:07.242Z,1007.00
2023-05-01T06:18:07.240Z,1006.96
2023-05-01T06:19:07.206Z,1006.93
2023-05-01T06:20:07.224Z,1006.91
2023-05-01T06:21:07.211Z,1006.95
2023-05-01T06:22:07.194Z,1006.94
2023-05-01T06:23:07.186Z,1006.95
2023-05-01T06:24:07.149Z,1006.96
2023-05-01T06:25:07.125Z,1006.91
2023-05-01T06:26:07.160Z,1006.93
2023-05-01T06:27:07.131Z,1006.93
2023-05-01T06:28:07.148Z,1006.94
2023-05-01T06:29:07.070Z,1006.93
2023-05-01T06:30:07.071Z,1006.92
2023-05-01T06:31:07.092Z,1006.89
2023-05-01T06:32:07.054Z,1006.90
2023-05-01T06:33:07.095Z,1006.92
2023-05-01T06:34:07.088Z,1006.94
2023-05-01T06:35:07.055Z,1006.97
2023-05-01T06:36:07.058Z,1006.93
2023-05-01T06:37:07.102Z,1006.91
2023-05-01T06:38:06.971Z,1006.94
2023-05-01T06:39:06.967Z,1006.90
2023-05-01T06:40:06.963Z,1006.90
2023-05-01T06:41:06.964Z,1006.90
2023-05-01T06:42:06.935Z,1006.93
2023-05-01T06:43:06.941Z,1006.93
2023-05-01T06:44:06.895Z,1006.89
2023-05-01T06:45:06.888Z,1006.89
2023-05-01T06:46:06.906Z,1006.96
2023-05-01T06:47:06.933Z,1006.87
2023-05-01T06:48:06.923Z,1006.83
2023-05-01T06:49:06.851Z,1006.89
2023-05-01T06:50:06.833Z,1006.91
2023-05-01T06:51:06.838Z,1006.92
2023-05-01T06:52:06.855Z,1006.92
2023-05-01T06:53:06.837Z,1006.92
2023-05-01T06:54:06.809Z,1006.97
2023-05-01T06:55:06.822Z,1006.97
2023-05-01T06:56:06.781Z,1006.93
2023-05-01T06:57:06.750Z,1006.95
2023-05-01T06:58:16.003Z,1006.89
2023-05-01T06:59:07.778Z,1006.94
2023-05-01T07:00:06.762Z,1006.92
2023-05-01T07:01:06.818Z,1006.88
2023-05-01T07:02:06.741Z,1006.91
2023-05-01T07:03:06.737Z,1006.92
2023-05-01T07:04:06.697Z,1006.89
2023-05-01T07:05:06.700Z,1006.92
2023-05-01T07:06:06.681Z,1006.90
2023-05-01T07:07:06.642Z,1006.88
2023-05-01T07:08:06.640Z,1006.93
2023-05-01T07:09:06.624Z,1006.92
2023-05-01T07:10:06.639Z,1006.88
2023-05-01T07:11:06.666Z,1006.90
2023-05-01T07:12:06.645Z,1006.94
2023-05-01T07:13:06.586Z,1006.87
2023-05-01T07:14:06.568Z,1006.84
2023-05-01T07:15:06.576Z,1006.86
2023-05-01T07:16:06.572Z,1006.81
2023-05-01T07:17:06.539Z,1006.81
2023-05-01T07:18:06.587Z,1006.85
2023-05-01T07:19:06.546Z,1006.84
2023-05-01T07:20:06.486Z,1006.80
2023-05-01T07:21:06.486Z,1006.85
2023-05-01T07:22:06.460Z,1006.81
2023-05-01T07:23:07.463Z,1006.77
2023-05-01T07:24:06.479Z,1006.82
2023-05-01T07:25:06.460Z,1006.79
2023-05-01T07:26:06.430Z,1006.75
2023-05-01T07:27:06.414Z,1006.76
2023-05-01T07:28:06.433Z,1006.80
2023-05-01T07:29:06.399Z,1006.82
2023-05-01T07:30:06.409Z,1006.82
2023-05-01T07:31:06.391Z,1006.78
2023-05-01T07:32:06.512Z,1006.77
2023-05-01T07:33:06.410Z,1006.76
2023-05-01T07:34:06.373Z,1006.83
2023-05-01T07:35:06.340Z,1006.82
2023-05-01T07:36:06.319Z,1006.77
2023-05-01T07:37:06.293Z,1006.73
2023-05-01T07:38:06.304Z,1006.76
2023-05-01T07:39:06.307Z,1006.81
2023-05-01T07:40:06.323Z,1006.79
2023-05-01T07:41:06.285Z,1006.80
2023-05-01T07:42:06.237Z,1006.81
2023-05-01T07:43:06.237Z,1006.78
2023-05-01T07:44:06.243Z,1006.78
2023-05-01T07:45:06.210Z,1006.78
2023-05-01T07:46:06.333Z,1006.78
2023-05-01T07:47:06.251Z,1006.77
2023-05-01T07:48:06.214Z,1006.72
2023-05-01T07:49:06.174Z,1006.70
2023-05-01T07:50:06.161Z,1006.73
2023-05-01T07:51:06.132Z,1006.73
2023-05-01T07:52:06.139Z,1006.73
2023-05-01T07:53:06.128Z,1006.74
2023-05-01T07:54:06.143Z,1006.72
2023-05-01T07:55:06.104Z,1006.69
2023-05-01T07:56:06.100Z,1006.73
2023-05-01T07:57:06.090Z,1006.72
2023-05-01T07:58:06.057Z,1006.73
2023-05-01T07:59:06.062Z,1006.73
2023-05-01T08:00:06.058Z,1006.70
2023-05-01T08:01:06.058Z,1006.73
2023-05-01T08:02:06.077Z,1006.66
2023-05-01T08:03:06.124Z,1006.64
2023-05-01T08:04:06.249Z,1006.68
2023-05-01T08:05:05.994Z,1006.68
2023-05-01T08:06:06.090Z,1006.69
2023-05-01T08:07:05.966Z,1006.71
2023-05-01T08:08:05.971Z,1006.69
2023-05-01T08:09:05.938Z,1006.62
2023-05-01T08:10:05.929Z,1006.66
2023-05-01T08:11:05.949Z,1006.61
2023-05-01T08:12:05.935Z,1006.64
2023-05-01T08:13:05.921Z,1006.69
2023-05-01T08:14:05.899Z,1006.67
2023-05-01T08:15:05.871Z,1006.69
2023-05-01T08:16:05.903Z,1006.69
2023-05-01T08:17:05.851Z,1006.69
2023-05-01T08:18:06.206Z,1006.70
2023-05-01T08:19:05.827Z,1006.67
2023-05-01T08:20:05.814Z,1006.66
2023-05-01T08:21:05.826Z,1006.68
2023-05-01T08:22:05.786Z,1006.71
2023-05-01T08:23:05.796Z,1006.70
2023-05-01T08:24:05.789Z,1006.67
2023-05-01T08:25:05.759Z,1006.69
2023-05-01T08:26:05.759Z,1006.66
2023-05-01T08:27:05.751Z,1006.65
2023-05-01T08:28:05.757Z,1006.66
2023-05-01T08:29:05.726Z,1006.63
2023-05-01T08:30:05.693Z,1006.68
2023-05-01T08:31:05.721Z,1006.62
2023-05-01T08:32:05.710Z,1006.65
2023-05-01T08:33:05.787Z,1006.63
2023-05-01T08:34:05.659Z,1006.66
2023-05-01T08:35:05.643Z,1006.67
2023-05-01T08:36:05.644Z,1006.65
2023-05-01T08:37:05.659Z,1006.64
2023-05-01T08:38:05.607Z,1006.65
2023-05-01T08:39:05.638Z,1006.70
2023-05-01T08:40:05.594Z,1006.70
2023-05-01T08:41:05.584Z,1006.63
2023-05-01T08:42:05.685Z,1006.66
2023-05-01T08:43:05.569Z,1006.69
2023-05-01T08:44:05.576Z,1006.67
2023-05-01T08:45:05.547Z,1006.66
2023-05-01T08:46:05.534Z,1006.65
2023-05-01T08:47:05.717Z,1006.66
2023-05-01T08:48:05.596Z,1006.60
2023-05-01T08:49:05.491Z,1006.58
2023-05-01T08:50:05.503Z,1006.59
2023-05-01T08:51:05.509Z,1006.58
2023-05-01T08:52:05.463Z,1006.59
2023-05-01T08:53:05.453Z,1006.56
2023-05-01T08:54:05.420Z,1006.59
2023-05-01T08:55:05.439Z,1006.57
2023-05-01T08:56:05.436Z,1006.59
2023-05-01T08:57:05.393Z,1006.57
2023-05-01T08:58:05.398Z,1006.56
2023-05-01T08:59:05.406Z,1006.56
2023-05-01T09:00:05.378Z,1006.53
2023-05-01T09:01:05.371Z,1006.58
2023-05-01T09:02:05.595Z,1006.59
2023-05-01T09:03:05.808Z,1006.57
2023-05-01T09:04:05.369Z,1006.60
2023-05-01T09:05:05.348Z,1006.53
2023-05-01T09:06:05.383Z,1006.48
2023-05-01T09:07:05.294Z,1006.46
2023-05-01T09:08:05.657Z,1006.48
2023-05-01T09:09:05.278Z,1006.47
2023-05-01T09:10:05.245Z,1006.46
2023-05-01T09:11:05.255Z,1006.45
2023-05-01T09:12:05.252Z,1006.46
2023-05-01T09:13:05.216Z,1006.41
2023-05-01T09:14:05.206Z,1006.44
2023-05-01T09:15:05.220Z,1006.45
2023-05-01T09:16:05.260Z,1006.43
2023-05-01T09:17:05.160Z,1006.43
2023-05-01T09:18:05.223Z,1006.36
2023-05-01T09:19:05.154Z,1006.37
2023-05-01T09:20:05.151Z,1006.34
2023-05-01T09:21:05.123Z,1006.35
2023-05-01T09:22:05.124Z,1006.38
2023-05-01T09:23:05.132Z,1006.38
2023-05-01T09:24:05.169Z,1006.35
2023-05-01T09:25:05.112Z,1006.32
2023-05-01T09:26:05.068Z,1006.37
2023-05-01T09:27:05.080Z,1006.29
2023-05-01T09:28:05.054Z,1006.28
2023-05-01T09:29:05.033Z,1006.32
2023-05-01T09:30:05.174Z,1006.26
2023-05-01T09:31:05.062Z,1006.24
2023-05-01T09:32:05.048Z,1006.25
2023-05-01T09:33:05.082Z,1006.24
2023-05-01T09:34:05.079Z,1006.27
2023-05-01T09:35:04.990Z,1006.26
2023-05-01T09:36:04.979Z,1006.27
2023-05-01T09:37:04.958Z,1006.18
2023-05-01T09:38:04.943Z,1006.21
2023-05-01T09:39:04.946Z,1006.21
2023-05-01T09:40:04.960Z,1006.22
2023-05-01T09:41:04.914Z,1006.16
2023-05-01T09:42:04.897Z,1006.18
2023-05-01T09:43:04.871Z,1006.21
2023-05-01T09:44:04.872Z,1006.22
2023-05-01T09:45:04.879Z,1006.20
2023-05-01T09:46:04.942Z,1006.19
2023-05-01T09:47:04.837Z,1006.19
2023-05-01T09:48:04.964Z,1006.16
2023-05-01T09:49:04.826Z,1006.17
2023-05-01T09:50:04.807Z,1006.14
2023-05-01T09:51:04.785Z,1006.15
2023-05-01T09:52:04.773Z,1006.12
2023-05-01T09:53:04.899Z,1006.11
2023-05-01T09:54:04.773Z,1006.12
2023-05-01T09:55:04.745Z,1006.13
2023-05-01T09:56:04.735Z,1006.11
2023-05-01T09:57:04.714Z,1006.14
2023-05-01T09:58:04.701Z,1006.15
2023-05-01T09:59:04.710Z,1006.14
2023-05-01T10:00:05.138Z,1006.10
2023-05-01T10:01:04.768Z,1006.10
2023-05-01T10:02:04.730Z,1006.08
2023-05-01T10:03:05.878Z,1006.00
2023-05-01T10:04:04.683Z,1006.01
2023-05-01T10:05:04.646Z,1006.00
2023-05-01T10:06:04.702Z,1005.99
2023-05-01T10:07:04.688Z,1005.99
2023-05-01T10:08:04.624Z,1005.99
2023-05-01T10:09:04.619Z,1006.00
2023-05-01T10:10:04.793Z,1006.00
2023-05-01T10:11:04.562Z,1006.06
2023-05-01T10:12:04.632Z,1006.02
2023-05-01T10:13:04.568Z,1006.00
2023-05-01T10:14:04.570Z,1005.95
2023-05-01T10:15:13.733Z,1005.97
2023-05-01T10:16:05.510Z,1005.98
2023-05-01T10:17:04.523Z,1005.99
2023-05-01T10:18:04.518Z,1005.95
2023-05-01T10:19:04.643Z,1005.97
2023-05-01T10:20:04.506Z,1006.01
2023-05-01T10:21:04.509Z,1005.99
2023-05-01T10:22:04.476Z,1005.98
2023-05-01T10:23:04.478Z,1006.00
2023-05-01T10:24:04.423Z,1006.03
2023-05-01T10:25:04.446Z,1006.01
2023-05-01T10:26:05.246Z,1006.00
2023-05-01T10:27:04.417Z,1006.05
2023-05-01T10:28:04.419Z,1006.00
2023-05-01T10:29:04.377Z,1005.99
2023-05-01T10:30:04.377Z,1006.00
2023-05-01T10:31:04.401Z,1005.98
2023-05-01T10:32:04.467Z,1006.00
2023-05-01T10:33:04.367Z,1005.96
2023-05-01T10:34:04.308Z,1005.96
2023-05-01T10:35:04.313Z,1005.92
2023-05-01T10:36:04.387Z,1005.91
2023-05-01T10:37:04.297Z,1005.91
2023-05-01T10:38:04.689Z,1005.92
2023-05-01T10:39:04.296Z,1005.93
2023-05-01T10:40:04.257Z,1005.90
2023-05-01T10:41:04.267Z,1005.91
2023-05-01T10:42:04.254Z,1005.90
2023-05-01T10:43:04.236Z,1005.89
2023-05-01T10:44:04.217Z,1005.88
2023-05-01T10:45:04.230Z,1005.83
2023-05-01T10:46:04.256Z,1005.89
2023-05-01T10:47:04.187Z,1005.82
2023-05-01T10:48:04.238Z,1005.83
2023-05-01T10:49:04.162Z,1005.87
2023-05-01T10:50:04.162Z,1005.84
2023-05-01T10:51:04.162Z,1005.86
2023-05-01T10:52:04.165Z,1005.83
2023-05-01T10:53:04.104Z,1005.79
2023-05-01T10:54:04.113Z,1005.79
2023-05-01T10:55:04.095Z,1005.75
2023-05-01T10:56:04.098Z,1005.76
2023-05-01T10:57:04.091Z,1005.76
2023-05-01T10:58:04.056Z,1005.72
2023-05-01T10:59:04.026Z,1005.69
2023-05-01T11:00:04.038Z,1005.76
2023-05-01T11:01:04.021Z,1005.70
2023-05-01T11:02:04.055Z,1005.71
2023-05-01T11:03:04.060Z,1005.70
2023-05-01T11:04:03.989Z,1005.69
2023-05-01T11:05:04.004Z,1005.69
2023-05-01T11:06:04.112Z,1005.65
2023-05-01T11:07:04.011Z,1005.69
2023-05-01T11:08:03.964Z,1005.72
2023-05-01T11:09:03.917Z,1005.71
2023-05-01T11:10:03.938Z,1005.71
2023-05-01T11:11:03.905Z,1005.71
2023-05-01T11:12:03.919Z,1005.72
2023-05-01T11:13:03.885Z,1005.66
2023-05-01T11:14:03.911Z,1005.70
2023-05-01T11:15:03.854Z,1005.70
2023-05-01T11:16:03.969Z,1005.66
2023-05-01T11:17:03.841Z,1005.66
2023-05-01T11:18:03.987Z,1005.67
2023-05-01T11:19:03.833Z,1005.61
2023-05-01T11:20:03.817Z,1005.66
2023-05-01T11:21:03.788Z,1005.68
2023-05-01T11:22:03.788Z,1005.69
2023-05-01T11:23:03.754Z,1005.67
2023-05-01T11:24:03.809Z,1005.66
2023-05-01T11:25:03.756Z,1005.67
2023-05-01T11:26:03.737Z,1005.70
2023-05-01T11:27:03.731Z,1005.77
2023-05-01T11:28:03.796Z,1005.74
2023-05-01T11:29:03.728Z,1005.68
2023-05-01T11:30:03.706Z,1005.68
2023-05-01T11:31:03.701Z,1005.65
2023-05-01T11:32:03.696Z,1005.67
2023-05-01T11:33:03.701Z,1005.69
2023-05-01T11:34:03.646Z,1005.65
2023-05-01T11:35:03.639Z,1005.68
2023-05-01T11:36:03.632Z,1005.68
2023-05-01T11:37:03.624Z,1005.71
2023-05-01T11:38:03.624Z,1005.67
2023-05-01T11:39:03.586Z,1005.67
2023-05-01T11:40:03.613Z,1005.67
2023-05-01T11:41:03.622Z,1005.67
2023-05-01T11:42:03.656Z,1005.72
2023-05-01T11:43:03.575Z,1005.71
2023-05-01T11:44:03.561Z,1005.70
2023-05-01T11:45:03.542Z,1005.72
2023-05-01T11:46:03.624Z,1005.73
2023-05-01T11:47:03.567Z,1005.70
2023-05-01T11:48:04.532Z,1005.70
2023-05-01T11:49:03.521Z,1005.72
2023-05-01T11:50:03.470Z,1005.72
2023-05-01T11:51:03.498Z,1005.68
2023-05-01T11:52:03.474Z,1005.69
2023-05-01T11:53:03.456Z,1005.69
2023-05-01T11:54:03.470Z,1005.71
2023-05-01T11:55:03.737Z,1005.70
2023-05-01T11:56:06.888Z,1005.70
2023-05-01T11:57:04.411Z,1005.75
2023-05-01T11:58:03.389Z,1005.69
2023-05-01T11:59:03.395Z,1005.73
2023-05-01T12:00:03.359Z,1005.66
2023-05-01T12:01:03.410Z,1005.68
2023-05-01T12:02:03.397Z,1005.67
2023-05-01T12:03:03.531Z,1005.67
2023-05-01T12:04:03.432Z,1005.67
2023-05-01T12:05:03.369Z,1005.71